Time;durP1;ratioP1;P1;durP2;ratioP2;P2;SDS_P1;SDS_P2;PMS_P1;PMS_P2;Temp;Humidity;BMP_temperature;BMP_pressure;BME280_temperature;BME280_humidity;BME280_pressure;Samples;Min_cycle;Max_cycle;Signal;HPM_P1;HPM_P2
2023/04/21 00:00:11;;;;;;;4.35;3.95;;;;;;;21.63;34.62;100401.44;4546134;28;20394;-58
2023/04/21 00:02:22;;;;;;;4.00;3.70;;;;;;;21.68;35.15;100406.06;4545915;28;20036;-58
2023/04/21 00:04:32;;;;;;;4.30;3.90;;;;;;;21.67;34.89;100402.38;4524940;28;20419;-59
2023/04/21 00:06:43;;;;;;;4.30;3.90;;;;;;;21.66;34.99;100400.69;4546790;28;20023;-58
2023/04/21 00:08:53;;;;;;;4.38;3.97;;;;;;;21.66;34.55;100399.88;4534767;28;20045;-58
2023/04/21 00:11:04;;;;;;;4.28;3.88;;;;;;;21.66;34.82;100399.88;4546118;28;20021;-58
2023/04/21 00:13:14;;;;;;;4.60;4.20;;;;;;;21.66;34.80;100389.19;4527385;28;20052;-58
2023/04/21 00:15:25;;;;;;;4.53;4.13;;;;;;;21.65;34.86;100386.72;4544557;28;20680;-58
2023/04/21 00:17:35;;;;;;;4.75;4.35;;;;;;;21.64;34.78;100390.81;4545413;28;20029;-58
2023/04/21 00:19:46;;;;;;;4.50;4.10;;;;;;;21.64;34.92;100397.38;4545862;28;20043;-58
2023/04/21 00:22:00;;;;;;;4.53;4.13;;;;;;;21.62;35.07;100393.22;4545314;28;20072;-58
2023/04/21 00:24:10;;;;;;;4.70;4.20;;;;;;;21.62;35.24;100391.19;4544913;28;20092;-58
2023/04/21 00:26:21;;;;;;;4.65;4.25;;;;;;;21.63;34.80;100381.34;4544250;28;20037;-58
2023/04/21 00:28:33;;;;;;;4.40;4.00;;;;;;;21.61;34.91;100380.88;4545183;28;20776;-59
2023/04/21 00:30:43;;;;;;;4.22;3.60;;;;;;;21.78;41.64;100379.63;4526469;28;20033;-58
2023/04/21 00:32:54;;;;;;;3.78;3.47;;;;;;;21.93;41.30;100382.38;4544261;28;20056;-58
2023/04/21 00:35:06;;;;;;;3.95;3.40;;;;;;;22.00;41.61;100371.03;4535477;28;20037;-59
2023/04/21 00:37:17;;;;;;;3.60;3.30;;;;;;;22.00;40.74;100375.94;4525814;28;20030;-58
2023/04/21 00:39:28;;;;;;;2.28;2.08;;;;;;;21.93;35.24;100370.03;4545832;28;20025;-58
2023/04/21 00:41:38;;;;;;;4.40;4.00;;;;;;;21.76;35.54;100370.53;4543396;28;20043;-58
2023/04/21 00:44:04;;;;;;;4.55;4.15;;;;;;;21.70;34.75;100372.03;4535115;28;20048;-59
2023/04/21 00:46:15;;;;;;;5.20;4.70;;;;;;;21.68;34.41;100377.31;4545198;28;20055;-58
2023/04/21 00:48:25;;;;;;;4.45;4.05;;;;;;;21.65;34.27;100381.81;4534352;28;20052;-59
2023/04/21 00:50:36;;;;;;;4.22;3.83;;;;;;;21.63;34.04;100384.22;4525299;28;20033;-58
2023/04/21 00:52:47;;;;;;;4.60;4.20;;;;;;;21.56;33.88;100377.50;4525496;28;20042;-58
2023/04/21 00:54:58;;;;;;;4.90;4.45;;;;;;;21.61;33.91;100392.38;4527109;28;20057;-58
2023/04/21 00:57:12;;;;;;;4.70;4.30;;;;;;;21.62;34.55;100393.22;4525556;28;20053;-58
2023/04/21 00:59:23;;;;;;;4.70;4.30;;;;;;;21.60;34.38;100387.84;4533330;28;20032;-59
2023/04/21 01:01:36;;;;;;;4.38;3.95;;;;;;;21.58;34.42;100392.31;4534891;28;20033;-58
2023/04/21 01:03:46;;;;;;;4.97;4.47;;;;;;;21.57;34.38;100388.63;4525172;28;20037;-59
2023/04/21 01:05:57;;;;;;;4.80;4.40;;;;;;;21.57;34.24;100394.34;4526296;28;20572;-59
2023/04/21 01:08:07;;;;;;;4.60;4.20;;;;;;;21.56;34.58;100392.69;4544000;28;20044;-58
2023/04/21 01:10:18;;;;;;;4.82;4.32;;;;;;;21.52;34.56;100390.94;4534658;28;20049;-59
2023/04/21 01:12:29;;;;;;;5.13;4.63;;;;;;;21.56;34.66;100395.56;4544904;28;20595;-59
2023/04/21 01:14:42;;;;;;;4.80;4.32;;;;;;;21.55;34.21;100398.81;4525336;28;20144;-58
2023/04/21 01:16:54;;;;;;;4.88;4.38;;;;;;;21.55;34.34;100399.63;4544348;28;20596;-59
2023/04/21 01:19:05;;;;;;;4.75;4.35;;;;;;;21.54;34.19;100398.00;4544744;28;20147;-58
2023/04/21 01:21:16;;;;;;;5.05;4.57;;;;;;;21.50;34.41;100391.31;4526794;28;20654;-58
2023/04/21 01:23:26;;;;;;;4.90;4.40;;;;;;;21.54;34.29;100403.72;4525572;28;20529;-58
2023/04/21 01:25:37;;;;;;;4.60;4.20;;;;;;;21.54;34.09;100402.88;4526573;28;20065;-59
2023/04/21 01:27:48;;;;;;;4.50;4.10;;;;;;;21.53;34.63;100396.31;4533822;28;20052;-59
2023/04/21 01:29:58;;;;;;;5.05;4.57;;;;;;;21.53;34.26;100402.06;4544000;28;20044;-59
2023/04/21 01:32:17;;;;;;;4.50;4.10;;;;;;;21.52;34.50;100399.56;4524617;28;20710;-58
2023/04/21 01:34:29;;;;;;;4.32;3.92;;;;;;;21.52;34.04;100400.41;4534586;28;20033;-58
2023/04/21 01:36:39;;;;;;;4.65;4.20;;;;;;;21.53;34.40;100395.50;4535059;28;20025;-58
2023/04/21 01:38:50;;;;;;;4.70;4.30;;;;;;;21.49;34.17;100391.69;4544471;28;20068;-58
2023/04/21 01:41:00;;;;;;;4.78;4.38;;;;;;;21.51;34.27;100395.88;4526584;28;20032;-59
2023/04/21 01:43:12;;;;;;;4.60;4.20;;;;;;;21.51;34.37;100393.00;4544842;28;20512;-58
2023/04/21 01:45:24;;;;;;;4.85;4.45;;;;;;;21.49;34.53;100389.66;4526276;28;20033;-58
2023/04/21 01:47:34;;;;;;;5.25;4.75;;;;;;;21.50;34.49;100388.44;4525320;28;20037;-59
2023/04/21 01:49:45;;;;;;;4.47;4.07;;;;;;;21.50;34.22;100385.56;4531811;28;20862;-58
2023/04/21 01:51:56;;;;;;;4.68;4.28;;;;;;;21.49;34.58;100389.66;4544849;28;20040;-58
2023/04/21 01:54:06;;;;;;;4.60;4.20;;;;;;;21.49;34.47;100395.41;4525920;28;20622;-59
2023/04/21 01:56:17;;;;;;;4.47;4.07;;;;;;;21.49;34.48;100388.84;4526742;28;20044;-59
2023/04/21 01:58:28;;;;;;;5.07;4.15;;;;;;;21.49;34.48;100394.56;4541841;28;20032;-59
2023/04/21 02:00:38;;;;;;;4.30;3.90;;;;;;;21.48;34.45;100388.03;4534839;28;20033;-59
2023/04/21 02:02:49;;;;;;;4.57;4.18;;;;;;;21.40;34.18;100374.72;4541814;28;20032;-58
2023/04/21 02:04:59;;;;;;;4.78;4.35;;;;;;;21.47;34.38;100394.16;4524125;28;20072;-58
2023/04/21 02:07:11;;;;;;;4.97;4.47;;;;;;;21.47;34.15;100394.94;4516976;28;20042;-58
2023/04/21 02:09:24;;;;;;;4.63;4.22;;;;;;;21.45;33.66;100385.91;4534613;28;20033;-58
2023/04/21 02:11:37;;;;;;;4.53;4.13;;;;;;;21.43;33.95;100382.56;4534462;28;20099;-58
2023/04/21 02:13:47;;;;;;;4.70;4.20;;;;;;;21.45;34.24;100385.91;4524193;28;20094;-59
2023/04/21 02:15:57;;;;;;;4.35;3.95;;;;;;;21.45;34.25;100393.69;4524176;28;20045;-58
2023/04/21 02:18:08;;;;;;;4.40;4.00;;;;;;;21.42;34.15;100395.25;4545093;28;20033;-59
2023/04/21 02:20:18;;;;;;;4.40;4.00;;;;;;;21.44;34.64;100401.47;4544341;28;20033;-58
2023/04/21 02:22:31;;;;;;;4.07;3.67;;;;;;;21.45;34.63;100406.00;4544251;28;21263;-59
2023/04/21 02:24:41;;;;;;;4.22;3.83;;;;;;;21.45;34.88;100399.44;4524164;28;20355;-58
2023/04/21 02:26:52;;;;;;;3.97;3.58;;;;;;;21.45;35.12;100400.25;4525233;28;20032;-58
2023/04/21 02:29:04;;;;;;;4.18;3.78;;;;;;;21.44;35.13;100404.31;4544023;28;20701;-59
2023/04/21 02:31:15;;;;;;;4.13;3.72;;;;;;;21.44;34.80;100398.59;4544663;28;20021;-59
2023/04/21 02:33:25;;;;;;;4.30;3.90;;;;;;;21.43;34.96;100399.81;4544758;28;20071;-59
2023/04/21 02:35:36;;;;;;;4.20;3.80;;;;;;;21.40;35.03;100397.69;4535263;28;20591;-59
2023/04/21 02:37:46;;;;;;;4.40;4.00;;;;;;;21.40;35.20;100406.31;4542635;28;20040;-58
2023/04/21 02:39:58;;;;;;;4.35;3.72;;;;;;;21.42;34.74;100406.72;4523860;28;20057;-59
2023/04/21 02:42:08;;;;;;;4.25;3.85;;;;;;;21.43;35.10;100407.56;4541701;28;20576;-58
2023/04/21 02:44:19;;;;;;;3.92;3.53;;;;;;;21.41;34.48;100399.34;4524625;28;20032;-58
2023/04/21 02:46:29;;;;;;;4.00;3.60;;;;;;;21.43;34.32;100401.84;4526168;28;20748;-58
2023/04/21 02:48:42;;;;;;;4.10;3.70;;;;;;;21.41;34.49;100402.22;4523310;28;20742;-58
2023/04/21 02:50:53;;;;;;;4.00;3.60;;;;;;;21.40;34.74;100403.44;4541685;28;20025;-58
2023/04/21 02:53:03;;;;;;;4.18;3.78;;;;;;;21.41;34.46;100410.00;4540955;28;20072;-59
2023/04/21 02:55:14;;;;;;;4.13;3.72;;;;;;;21.41;34.63;100415.72;4541588;28;21045;-58
2023/04/21 02:57:25;;;;;;;4.00;3.60;;;;;;;21.39;34.79;100407.50;4543122;28;20134;-58
2023/04/21 02:59:36;;;;;;;4.30;3.85;;;;;;;21.35;34.90;100406.59;4522177;28;20643;-58
2023/04/21 03:01:48;;;;;;;4.63;4.20;;;;;;;21.37;34.61;100409.94;4523980;28;20029;-59
2023/04/21 03:03:58;;;;;;;4.32;3.92;;;;;;;21.39;34.75;100410.38;4541865;28;20061;-59
2023/04/21 03:06:08;;;;;;;4.20;3.80;;;;;;;21.33;34.75;100397.53;4506539;28;20037;-58
2023/04/21 03:08:19;;;;;;;4.30;3.90;;;;;;;21.39;34.85;100416.09;4541682;28;20548;-58
2023/04/21 03:10:29;;;;;;;4.30;3.90;;;;;;;21.38;35.13;100405.84;4523882;28;20037;-58
2023/04/21 03:12:40;;;;;;;4.38;3.97;;;;;;;21.38;35.38;100414.47;4532071;28;20472;-58
2023/04/21 03:14:50;;;;;;;4.93;4.50;;;;;;;21.38;35.54;100410.75;4541399;28;20543;-58
2023/04/21 03:17:01;;;;;;;4.40;4.00;;;;;;;21.37;35.53;100411.97;4541723;28;20558;-59
2023/04/21 03:19:11;;;;;;;4.85;4.35;;;;;;;21.37;35.32;100409.09;4533846;28;20021;-58
2023/04/21 03:21:21;;;;;;;4.20;3.80;;;;;;;21.37;35.35;100411.97;4524703;28;20045;-58
2023/04/21 03:23:32;;;;;;;4.53;4.13;;;;;;;21.31;35.43;100399.94;4534940;28;20037;-58
2023/04/21 03:25:42;;;;;;;4.40;4.00;;;;;;;21.36;35.50;100402.50;4534058;28;20099;-58
2023/04/21 03:27:53;;;;;;;4.40;4.00;;;;;;;21.35;35.75;100409.47;4531425;28;20537;-58
2023/04/21 03:30:05;;;;;;;4.45;4.05;;;;;;;21.35;36.03;100406.59;4533589;28;20551;-58
2023/04/21 03:32:16;;;;;;;4.63;4.22;;;;;;;21.34;36.03;100410.69;4539974;28;20152;-58
2023/04/21 03:34:26;;;;;;;4.60;4.20;;;;;;;21.34;35.85;100404.94;4542485;28;20805;-58
2023/04/21 03:36:37;;;;;;;4.30;3.90;;;;;;;21.34;35.67;100404.94;4525972;28;20482;-58
2023/04/21 03:38:48;;;;;;;4.47;4.07;;;;;;;21.33;35.69;100414.75;4534576;28;20035;-58
2023/04/21 03:40:58;;;;;;;4.30;3.90;;;;;;;21.35;36.08;100402.88;4523853;28;20029;-59
2023/04/21 03:43:08;;;;;;;2.70;2.10;;;;;;;21.52;41.46;100400.41;4531898;28;20029;-59
2023/04/21 03:45:21;;;;;;;3.88;3.58;;;;;;;21.34;36.35;100387.72;4521526;28;20041;-59
2023/04/21 03:47:31;;;;;;;4.28;3.88;;;;;;;21.38;36.12;100402.97;4524120;28;20080;-58
2023/04/21 03:49:42;;;;;;;4.47;4.07;;;;;;;21.36;35.73;100404.56;4533390;28;20123;-58
2023/04/21 03:51:52;;;;;;;5.05;4.15;;;;;;;21.35;35.86;100400.84;4543524;28;20078;-58
2023/04/21 03:54:03;;;;;;;5.10;4.30;;;;;;;21.33;35.61;100403.25;4541508;28;20060;-58
2023/04/21 03:56:13;;;;;;;4.28;3.88;;;;;;;21.34;35.47;100406.97;4541936;28;20071;-58
2023/04/21 03:58:23;;;;;;;4.45;4.05;;;;;;;21.30;35.60;100400.31;4542426;28;20079;-58
2023/04/21 04:00:34;;;;;;;4.53;4.00;;;;;;;21.32;35.67;100395.03;4533198;28;27203;-59
2023/04/21 04:02:44;;;;;;;4.80;4.28;;;;;;;21.32;35.40;100398.75;4531996;28;20056;-59
2023/04/21 04:04:55;;;;;;;4.35;3.95;;;;;;;21.31;35.70;100402.81;4541440;28;20032;-58
2023/04/21 04:07:07;;;;;;;4.70;4.30;;;;;;;21.24;35.37;100391.19;4541121;28;20121;-58
2023/04/21 04:09:17;;;;;;;4.50;4.10;;;;;;;21.30;35.41;100398.28;4541693;28;20048;-58
2023/04/21 04:11:27;;;;;;;4.70;4.20;;;;;;;21.30;35.58;100404.03;4541281;28;20701;-58
2023/04/21 04:13:38;;;;;;;4.40;4.00;;;;;;;21.29;35.13;100402.38;4543165;28;20084;-58
2023/04/21 04:15:48;;;;;;;4.60;4.20;;;;;;;21.30;35.46;100394.56;4542424;28;20040;-58
2023/04/21 04:17:59;;;;;;;4.50;4.10;;;;;;;21.28;35.43;100389.22;4541449;28;20037;-58
2023/04/21 04:20:09;;;;;;;4.50;4.10;;;;;;;21.28;35.79;100394.94;4542853;28;20373;-59
2023/04/21 04:22:19;;;;;;;4.60;4.10;;;;;;;21.26;35.77;100390.81;4527404;28;20320;-58
2023/04/21 04:24:32;;;;;;;4.55;4.00;;;;;;;21.27;35.96;100390.44;4541762;28;20053;-58
2023/04/21 04:26:43;;;;;;;4.50;4.00;;;;;;;21.25;35.92;100387.09;4541316;28;20037;-58
2023/04/21 04:28:55;;;;;;;4.00;3.60;;;;;;;21.26;36.00;100385.91;4545581;28;20115;-58
2023/04/21 04:31:06;;;;;;;3.90;3.50;;;;;;;21.26;36.23;100391.66;4543888;28;20766;-59
2023/04/21 04:33:16;;;;;;;4.22;3.83;;;;;;;21.25;36.23;100389.97;4525867;28;20736;-58
2023/04/21 04:35:27;;;;;;;4.70;4.20;;;;;;;21.25;35.77;100386.28;4535047;28;20043;-58
2023/04/21 04:37:40;;;;;;;4.40;4.00;;;;;;;21.26;35.82;100391.66;4544713;28;20082;-58
2023/04/21 04:39:52;;;;;;;4.30;3.90;;;;;;;21.17;35.81;100376.66;4544314;28;20069;-58
2023/04/21 04:42:08;;;;;;;4.70;4.00;;;;;;;21.24;36.33;100391.19;4545992;28;20199;-59
2023/04/21 04:44:18;;;;;;;4.43;4.03;;;;;;;21.21;36.03;100377.59;4543703;28;20691;-58
2023/04/21 04:46:29;;;;;;;4.22;3.83;;;;;;;21.24;36.30;100387.47;4544107;28;20055;-58
2023/04/21 04:48:39;;;;;;;4.30;3.90;;;;;;;21.23;36.35;100392.38;4544051;28;20041;-59
2023/04/21 04:50:50;;;;;;;4.30;3.90;;;;;;;21.24;35.83;100391.19;4545477;28;20487;-59
2023/04/21 04:53:01;;;;;;;4.70;4.07;;;;;;;21.23;36.32;100397.31;4542699;28;21298;-59
2023/04/21 04:55:12;;;;;;;5.03;3.95;;;;;;;21.23;35.78;100408.78;4544387;28;20037;-58
2023/04/21 04:57:23;;;;;;;4.20;3.80;;;;;;;21.21;36.08;100403.44;4528962;28;20029;-58
2023/04/21 04:59:35;;;;;;;4.57;4.05;;;;;;;21.22;35.88;100396.47;4543041;28;20694;-59
2023/04/21 05:01:45;;;;;;;4.35;3.90;;;;;;;21.22;36.02;100407.94;4543503;28;20144;-58
2023/04/21 05:03:56;;;;;;;4.03;3.63;;;;;;;21.21;36.33;100412.03;4543912;28;20032;-59
2023/04/21 05:06:06;;;;;;;4.80;4.30;;;;;;;21.21;36.46;100403.44;4543381;28;20045;-58
2023/04/21 05:08:17;;;;;;;4.72;3.88;;;;;;;21.20;36.27;100410.34;4541645;28;20043;-58
2023/04/21 05:10:27;;;;;;;4.72;4.05;;;;;;;21.21;36.70;100406.28;4541488;28;20146;-58
2023/04/21 05:12:38;;;;;;;4.63;4.22;;;;;;;21.19;36.40;100394.34;4542734;28;20124;-59
2023/04/21 05:14:48;;;;;;;4.20;3.80;;;;;;;21.20;36.52;100407.47;4542148;28;20037;-58
2023/04/21 05:16:59;;;;;;;2.10;1.83;;;;;;;21.32;41.42;100407.34;4544883;28;20529;-59
2023/04/21 05:19:09;;;;;;;1.42;1.33;;;;;;;21.46;41.49;100398.19;4543266;28;20043;-58
2023/04/21 05:21:27;;;;;;;1.92;1.77;;;;;;;21.36;41.43;100375.84;4533979;28;20481;-58
2023/04/21 05:23:38;;;;;;;2.00;1.80;;;;;;;21.52;40.86;100403.28;4542995;28;20625;-58
2023/04/21 05:25:48;;;;;;;2.20;1.90;;;;;;;21.55;38.81;100399.63;4544073;28;20070;-59
2023/04/21 05:27:59;;;;;;;1.90;1.80;;;;;;;21.62;41.20;100405.53;4542422;28;20074;-59
2023/04/21 05:30:09;;;;;;;1.70;1.58;;;;;;;21.66;41.25;100409.31;4545326;28;20031;-59
2023/04/21 05:32:20;;;;;;;1.60;1.50;;;;;;;21.65;41.30;100406.81;4526204;28;20624;-60
2023/04/21 05:34:30;;;;;;;1.85;1.75;;;;;;;21.68;40.95;100412.63;4546362;28;20473;-59
2023/04/21 05:36:41;;;;;;;1.70;1.60;;;;;;;21.65;41.02;100409.69;4525792;28;20029;-59
2023/04/21 05:38:52;;;;;;;1.50;1.40;;;;;;;21.68;41.35;100406.88;4544308;28;20028;-59
2023/04/21 05:41:03;;;;;;;1.70;1.60;;;;;;;21.70;41.14;100407.34;4543045;28;20051;-59
2023/04/21 05:43:13;;;;;;;1.58;1.48;;;;;;;21.71;40.83;100403.25;4527030;28;20171;-60
2023/04/21 05:45:24;;;;;;;1.50;1.40;;;;;;;21.72;41.04;100410.66;4542786;28;20037;-59
2023/04/21 05:47:36;;;;;;;1.60;1.50;;;;;;;21.73;40.66;100414.38;4543492;28;20041;-59
2023/04/21 05:49:48;;;;;;;1.70;1.60;;;;;;;21.72;41.07;100413.53;4541872;28;20551;-59
2023/04/21 05:51:59;;;;;;;1.70;1.50;;;;;;;21.74;41.29;100408.25;4544027;28;20033;-59
2023/04/21 05:54:09;;;;;;;1.63;1.50;;;;;;;21.74;40.73;100419.72;4544740;28;20036;-58
2023/04/21 05:56:20;;;;;;;1.70;1.58;;;;;;;21.57;41.56;100419.34;4546519;28;20029;-59
2023/04/21 05:58:30;;;;;;;1.70;1.60;;;;;;;21.66;41.42;100419.97;4542929;28;20433;-59
2023/04/21 06:00:41;;;;;;;2.72;2.53;;;;;;;21.48;40.53;100415.91;4542063;28;20028;-59
2023/04/21 06:02:51;;;;;;;1.60;1.50;;;;;;;21.49;41.32;100414.69;4544072;28;20029;-59
2023/04/21 06:05:02;;;;;;;1.60;1.50;;;;;;;21.60;41.54;100416.56;4544695;28;20477;-59
2023/04/21 06:07:12;;;;;;;1.50;1.40;;;;;;;21.65;41.34;100407.66;4544506;28;20021;-59
2023/04/21 06:09:22;;;;;;;1.60;1.50;;;;;;;21.68;41.30;100415.50;4524629;28;20060;-59
2023/04/21 06:11:33;;;;;;;1.50;1.40;;;;;;;21.69;41.09;100410.59;4543114;28;20087;-59
2023/04/21 06:13:43;;;;;;;3.58;3.17;;;;;;;21.43;40.72;100405.56;4544343;28;20036;-60
2023/04/21 06:15:54;;;;;;;4.72;3.92;;;;;;;21.34;38.39;100399.22;4542733;28;20475;-59
2023/04/21 06:18:04;;;;;;;4.50;4.10;;;;;;;21.30;38.03;100398.28;4540831;28;20061;-59
2023/04/21 06:20:16;;;;;;;4.55;4.15;;;;;;;21.21;37.89;100389.06;4525500;28;20037;-59
2023/04/21 06:22:26;;;;;;;4.30;3.90;;;;;;;21.24;38.15;100391.19;4533558;28;20079;-60
2023/04/21 06:24:37;;;;;;;1.60;1.50;;;;;;;21.36;41.44;100393.91;4534279;28;20688;-59
2023/04/21 06:26:47;;;;;;;2.92;2.67;;;;;;;21.39;38.56;100386.59;4541768;28;20037;-59
2023/04/21 06:28:58;;;;;;;4.20;3.80;;;;;;;21.26;38.43;100388.78;4541294;28;21294;-59
2023/04/21 06:31:13;;;;;;;3.13;2.70;;;;;;;21.27;40.71;100386.72;4541086;28;20065;-61
2023/04/21 06:33:25;;;;;;;4.07;3.58;;;;;;;21.24;37.49;100387.47;4545756;28;20106;-59
2023/04/21 06:35:36;;;;;;;4.40;4.00;;;;;;;21.21;37.54;100386.19;4545174;28;20024;-59
2023/04/21 06:37:46;;;;;;;4.40;4.00;;;;;;;21.19;37.55;100384.91;4544682;28;20072;-63
2023/04/21 06:39:56;;;;;;;4.47;4.03;;;;;;;21.18;37.27;100407.03;4542794;28;20131;-61
2023/04/21 06:42:07;;;;;;;4.38;3.67;;;;;;;21.17;37.32;100404.56;4543201;28;20063;-61
2023/04/21 06:44:25;;;;;;;4.90;4.40;;;;;;;21.15;37.67;100396.31;4524133;28;20029;-61
2023/04/21 06:46:35;;;;;;;4.25;3.85;;;;;;;21.12;37.66;100397.03;4542812;28;20151;-58
2023/04/21 06:48:46;;;;;;;4.75;4.18;;;;;;;21.14;37.79;100399.53;4543294;28;20051;-59
2023/04/21 06:50:56;;;;;;;4.88;4.30;;;;;;;21.13;37.92;100398.72;4542486;28;20572;-58
2023/04/21 06:53:09;;;;;;;4.88;4.38;;;;;;;21.14;37.58;100399.53;4543135;28;20586;-59
2023/04/21 06:55:19;;;;;;;4.55;4.10;;;;;;;21.13;38.09;100395.03;4544160;28;20029;-59
2023/04/21 06:57:30;;;;;;;4.03;3.35;;;;;;;21.12;38.25;100399.91;4543041;28;20586;-59
2023/04/21 06:59:40;;;;;;;4.10;3.42;;;;;;;21.13;39.08;100401.59;4542809;28;20044;-58
2023/04/21 07:01:51;;;;;;;4.43;3.50;;;;;;;21.12;38.40;100402.78;4544374;28;20034;-59
2023/04/21 07:04:01;;;;;;;4.15;3.70;;;;;;;21.12;38.85;100405.66;4533093;28;20091;-60
2023/04/21 07:06:12;;;;;;;4.50;3.53;;;;;;;21.11;38.49;100401.13;4542733;28;20392;-59
2023/04/21 07:08:23;;;;;;;4.47;4.07;;;;;;;21.12;38.52;100399.91;4542977;28;20068;-59
2023/04/21 07:10:34;;;;;;;4.20;3.80;;;;;;;21.11;38.58;100383.06;4543237;28;20024;-60
2023/04/21 07:12:45;;;;;;;4.40;3.78;;;;;;;21.12;38.98;100394.19;4543342;28;20497;-58
2023/04/21 07:14:55;;;;;;;4.25;3.35;;;;;;;21.11;39.20;100389.66;4544710;28;20029;-58
2023/04/21 07:17:05;;;;;;;3.90;3.40;;;;;;;21.12;38.78;100396.22;4541578;28;20068;-58
2023/04/21 07:19:16;;;;;;;4.70;4.00;;;;;;;21.12;38.93;100384.75;4541084;28;20029;-58
2023/04/21 07:21:27;;;;;;;4.50;3.63;;;;;;;21.13;38.65;100383.53;4541649;28;20276;-58
2023/04/21 07:23:37;;;;;;;5.05;3.80;;;;;;;21.12;38.52;100387.63;4543657;28;20102;-59
2023/04/21 07:25:48;;;;;;;4.75;3.92;;;;;;;21.11;38.84;100372.44;4542619;28;20131;-58
2023/04/21 07:27:58;;;;;;;4.47;3.90;;;;;;;21.11;38.29;100378.19;4533265;28;20112;-60
2023/04/21 07:30:09;;;;;;;4.35;3.92;;;;;;;21.10;38.62;100379.41;4541828;28;20041;-59
2023/04/21 07:32:20;;;;;;;4.50;3.88;;;;;;;21.11;38.62;100371.59;4527193;28;20040;-59
2023/04/21 07:34:30;;;;;;;4.10;3.70;;;;;;;21.11;38.18;100369.56;4543310;28;20044;-59
2023/04/21 07:36:40;;;;;;;5.13;4.05;;;;;;;21.12;38.44;100371.22;4542800;28;20037;-59
2023/04/21 07:38:51;;;;;;;4.47;4.03;;;;;;;21.11;38.62;100377.34;4542451;28;20025;-58
2023/04/21 07:41:01;;;;;;;4.38;3.83;;;;;;;21.10;38.42;100388.00;4542621;28;20040;-59
2023/04/21 07:43:12;;;;;;;4.30;3.90;;;;;;;21.01;38.49;100364.41;4532959;28;20056;-58
2023/04/21 07:45:23;;;;;;;4.35;3.60;;;;;;;21.05;38.58;100373.94;4533642;28;20037;-59
2023/04/21 07:47:34;;;;;;;4.45;3.83;;;;;;;21.10;38.94;100367.06;4541499;28;20036;-58
2023/04/21 07:49:44;;;;;;;4.13;3.72;;;;;;;21.09;38.76;100369.09;4540417;28;20029;-58
2023/04/21 07:51:55;;;;;;;4.13;3.72;;;;;;;21.09;39.47;100369.09;4540902;28;20070;-59
2023/04/21 07:54:05;;;;;;;4.35;3.95;;;;;;;21.09;39.59;100371.97;4541020;28;21131;-57
2023/04/21 07:56:16;;;;;;;4.20;3.78;;;;;;;21.07;39.28;100371.53;4539584;28;20035;-59
2023/04/21 07:58:26;;;;;;;4.57;4.05;;;;;;;21.09;39.51;100368.28;4540113;28;20036;-59
2023/04/21 08:00:37;;;;;;;4.18;3.78;;;;;;;21.09;39.37;100369.09;4539231;28;20087;-58
2023/04/21 08:02:47;;;;;;;4.53;4.00;;;;;;;21.04;39.22;100354.22;4544356;28;20032;-58
2023/04/21 08:04:58;;;;;;;4.40;3.83;;;;;;;21.09;39.40;100368.28;4543519;28;20040;-58
2023/04/21 08:07:08;;;;;;;4.43;3.88;;;;;;;21.10;38.58;100372.81;4545539;28;20045;-59
2023/04/21 08:09:19;;;;;;;4.00;3.60;;;;;;;21.09;38.69;100374.84;4544105;28;20041;-59
2023/04/21 08:11:29;;;;;;;4.10;3.70;;;;;;;21.08;38.64;100370.31;4512904;28;20389;-58
2023/04/21 08:13:40;;;;;;;3.80;3.50;;;;;;;21.10;39.29;100373.66;4544147;28;20512;-59
2023/04/21 08:15:51;;;;;;;4.03;3.60;;;;;;;21.10;39.71;100384.28;4544364;28;20680;-58
2023/04/21 08:18:02;;;;;;;4.35;3.95;;;;;;;21.10;39.15;100376.53;4543673;28;20033;-58
2023/04/21 08:20:12;;;;;;;4.10;3.70;;;;;;;21.07;39.12;100365.81;4543512;28;20036;-59
2023/04/21 08:22:23;;;;;;;4.32;3.88;;;;;;;21.09;38.90;100374.03;4524993;28;20041;-58
2023/04/21 08:24:33;;;;;;;4.22;3.80;;;;;;;21.07;38.56;100371.53;4543658;28;20025;-58
2023/04/21 08:26:44;;;;;;;4.28;3.85;;;;;;;21.10;38.67;100378.56;4545177;28;20072;-59
2023/04/21 08:28:55;;;;;;;4.10;3.70;;;;;;;21.04;38.55;100378.00;4546581;28;20083;-59
2023/04/21 08:31:06;;;;;;;4.47;3.75;;;;;;;21.10;38.31;100369.94;4543175;28;20659;-59
2023/04/21 08:33:16;;;;;;;4.72;3.85;;;;;;;21.09;38.19;100369.09;4542950;28;20092;-58
2023/04/21 08:35:27;;;;;;;4.38;3.95;;;;;;;21.10;38.55;100367.06;4524645;28;20144;-59
2023/04/21 08:37:37;;;;;;;4.20;3.80;;;;;;;21.09;38.09;100377.72;4533553;28;20088;-58
2023/04/21 08:39:52;;;;;;;4.15;3.75;;;;;;;21.06;38.30;100358.38;4541850;28;20449;-59
2023/04/21 08:42:03;;;;;;;3.88;3.50;;;;;;;21.10;38.12;100370.78;4542287;28;20625;-59
2023/04/21 08:44:14;;;;;;;4.10;3.70;;;;;;;21.10;38.81;100365.03;4544297;28;20043;-59
2023/04/21 08:46:26;;;;;;;4.90;4.20;;;;;;;21.10;38.66;100365.03;4535043;28;20588;-59
2023/04/21 08:48:37;;;;;;;4.18;3.78;;;;;;;21.03;38.99;100353.41;4542978;28;20045;-59
2023/04/21 08:50:49;;;;;;;4.07;3.38;;;;;;;21.11;38.82;100366.69;4543939;28;20514;-58
2023/04/21 08:53:00;;;;;;;4.38;3.78;;;;;;;21.12;38.89;100373.28;4544912;28;20047;-58
2023/04/21 08:55:12;;;;;;;4.03;3.63;;;;;;;21.12;38.97;100367.53;4546606;28;20043;-59
2023/04/21 08:57:22;;;;;;;4.95;3.83;;;;;;;21.13;39.39;100361.41;4542708;28;20045;-59
2023/04/21 08:59:33;;;;;;;4.63;3.83;;;;;;;21.12;38.95;100362.59;4545127;28;20029;-58
2023/04/21 09:02:10;;;;;;;5.38;4.05;;;;;;;21.14;39.66;100356.50;4546013;28;20649;-59
2023/04/21 09:04:20;;;;;;;4.05;3.65;;;;;;;21.12;39.81;100362.59;4545848;28;20036;-59
2023/04/21 09:06:44;;;;;;;4.45;3.67;;;;;;;21.14;40.16;100356.50;4545189;28;20025;-58
2023/04/21 09:08:55;;;;;;;4.10;3.45;;;;;;;21.12;39.76;100345.38;4544668;28;20586;-59
2023/04/21 09:11:05;;;;;;;4.22;3.72;;;;;;;21.12;40.21;100344.56;4546122;28;20090;-58
2023/04/21 09:13:17;;;;;;;3.90;3.40;;;;;;;21.15;39.61;100349.56;4534383;28;20091;-58
2023/04/21 09:15:28;;;;;;;4.40;3.50;;;;;;;21.15;40.31;100344.66;4542934;28;20028;-58
2023/04/21 09:17:38;;;;;;;3.63;3.33;;;;;;;21.15;39.84;100338.91;4525111;28;20037;-58
2023/04/21 09:19:48;;;;;;;4.50;3.65;;;;;;;21.15;39.30;100344.66;4543592;28;20044;-59
2023/04/21 09:22:00;;;;;;;3.90;3.40;;;;;;;21.16;39.22;100349.19;4525391;28;20136;-59
2023/04/21 09:24:11;;;;;;;3.60;3.30;;;;;;;21.17;39.54;100353.69;4526465;28;20104;-59
2023/04/21 09:26:22;;;;;;;3.97;3.58;;;;;;;21.17;39.21;100361.50;4534673;28;20036;-59
2023/04/21 09:28:32;;;;;;;3.47;3.10;;;;;;;21.17;39.84;100353.69;4543613;28;20047;-58
2023/04/21 09:30:43;;;;;;;3.70;3.28;;;;;;;21.17;39.10;100353.69;4543679;28;20025;-59
2023/04/21 09:32:57;;;;;;;3.80;3.40;;;;;;;21.17;39.09;100353.69;4544809;28;20048;-59
2023/04/21 09:35:11;;;;;;;3.72;3.30;;;;;;;21.18;39.10;100352.50;4544683;28;20032;-59
2023/04/21 09:37:23;;;;;;;4.10;3.65;;;;;;;21.19;39.61;100351.28;4525731;28;20026;-58
2023/04/21 09:39:34;;;;;;;3.97;3.28;;;;;;;21.18;39.51;100349.66;4534400;28;20028;-58
2023/04/21 09:41:44;;;;;;;3.97;3.53;;;;;;;21.19;39.72;100345.56;4545397;28;20029;-58
2023/04/21 09:43:55;;;;;;;3.60;3.30;;;;;;;21.19;39.45;100341.84;4545004;28;20119;-58
2023/04/21 09:46:06;;;;;;;3.50;3.20;;;;;;;21.18;39.71;100332.44;4526291;28;20070;-58
2023/04/21 09:48:17;;;;;;;3.58;3.10;;;;;;;21.19;39.04;100328.34;4543611;28;20021;-58
2023/04/21 09:50:28;;;;;;;3.80;3.40;;;;;;;21.20;38.88;100334.91;4543139;28;20248;-58
2023/04/21 09:52:42;;;;;;;3.88;3.22;;;;;;;21.19;39.89;100342.69;4545540;28;20128;-58
2023/04/21 09:54:59;;;;;;;3.67;3.30;;;;;;;21.20;39.50;100346.41;4541866;28;20036;-58
2023/04/21 09:57:12;;;;;;;3.70;3.20;;;;;;;21.21;39.40;100342.31;4544113;28;20024;-58
2023/04/21 09:59:29;;;;;;;4.15;3.33;;;;;;;21.17;38.81;100330.75;4543892;28;20489;-58
2023/04/21 10:01:40;;;;;;;3.88;3.05;;;;;;;21.20;39.40;100324.25;4524324;28;20083;-58
2023/04/21 10:03:52;;;;;;;3.25;2.95;;;;;;;21.20;39.50;100329.97;4543063;28;20585;-58
2023/04/21 10:06:03;;;;;;;3.63;3.33;;;;;;;21.22;39.38;100323.88;4533945;28;20712;-58
2023/04/21 10:08:15;;;;;;;3.58;2.95;;;;;;;21.21;40.28;100325.91;4544058;28;20048;-59